createdAt,value
2018-06-11T00:01:09.770Z,100555.00
2018-06-11T00:06:13.824Z,100551.00
2018-06-11T00:11:17.601Z,100557.00
2018-06-11T00:16:21.386Z,100552.00
2018-06-11T00:21:25.170Z,100553.00
2018-06-11T00:26:28.941Z,100557.00
2018-06-11T00:31:32.734Z,100555.00
2018-06-11T00:36:36.753Z,100560.00
2018-06-11T00:41:40.542Z,100565.00
2018-06-11T00:46:44.662Z,100568.00
2018-06-11T00:51:48.500Z,100572.00
2018-06-11T00:56:52.572Z,100567.00
2018-06-11T01:01:56.410Z,100574.00
2018-06-11T01:07:00.484Z,100570.00
2018-06-11T01:12:04.568Z,100564.00
2018-06-11T01:17:08.650Z,100560.00
2018-06-11T01:22:12.478Z,100558.00
2018-06-11T01:27:16.326Z,100550.00
2018-06-11T01:32:20.242Z,100541.00
2018-06-11T01:37:24.444Z,100531.00
2018-06-11T01:42:28.527Z,100525.00
2018-06-11T01:47:32.327Z,100521.00
2018-06-11T01:52:36.110Z,100513.00
2018-06-11T01:57:39.889Z,100508.00
2018-06-11T02:02:43.698Z,100508.00
2018-06-11T02:07:47.726Z,100505.00
2018-06-11T02:12:51.754Z,100501.00
2018-06-11T02:17:55.774Z,100502.00
2018-06-11T02:22:59.790Z,100503.00
2018-06-11T02:28:03.613Z,100514.00
2018-06-11T02:33:07.462Z,100513.00
2018-06-11T02:38:11.293Z,100507.00
2018-06-11T02:43:15.379Z,100497.00
2018-06-11T02:48:19.171Z,100488.00
2018-06-11T02:53:22.965Z,100489.00
2018-06-11T02:58:26.975Z,100489.00
2018-06-11T03:03:30.775Z,100479.00
2018-06-11T03:08:34.810Z,100481.00
2018-06-11T03:13:38.602Z,100483.00
2018-06-11T03:18:42.627Z,100485.00
2018-06-11T03:23:46.449Z,100491.00
2018-06-11T03:28:50.485Z,100490.00
2018-06-11T03:33:54.319Z,100483.00
2018-06-11T03:38:58.409Z,100472.00
2018-06-11T03:44:02.216Z,100476.00
2018-06-11T03:49:06.039Z,100478.00
2018-06-11T03:54:09.873Z,100483.00
2018-06-11T03:59:13.713Z,100488.00
2018-06-11T04:04:17.533Z,100498.00
2018-06-11T04:09:21.346Z,100506.00
2018-06-11T04:14:25.213Z,100511.00
2018-06-11T04:19:29.046Z,100514.00
2018-06-11T04:24:33.121Z,100511.00
2018-06-11T04:29:36.960Z,100525.00
2018-06-11T04:34:40.781Z,100523.00
2018-06-11T04:39:44.891Z,100517.00
2018-06-11T04:44:48.696Z,100518.00
2018-06-11T04:49:52.525Z,100521.00
2018-06-11T04:54:56.360Z,100519.00
2018-06-11T05:00:00.443Z,100523.00
2018-06-11T05:05:04.518Z,100522.00
2018-06-11T05:10:08.642Z,100527.00
2018-06-11T05:15:13.666Z,100523.00
2018-06-11T05:20:17.537Z,100517.00
2018-06-11T05:25:21.377Z,100515.00
2018-06-11T05:30:25.201Z,100527.00
2018-06-11T05:35:29.040Z,100520.00
2018-06-11T05:40:33.169Z,100526.00
2018-06-11T05:45:37.279Z,100536.00
2018-06-11T05:50:41.201Z,100535.00
2018-06-11T05:55:45.017Z,100534.00
2018-06-11T06:00:48.856Z,100525.00
2018-06-11T06:05:52.687Z,100530.00
2018-06-11T06:10:56.773Z,100522.00
2018-06-11T06:16:00.861Z,100521.00
2018-06-11T06:21:04.685Z,100515.00
2018-06-11T06:26:08.766Z,100522.00
2018-06-11T06:31:12.618Z,100518.00
2018-06-11T06:36:16.460Z,100524.00
2018-06-11T06:41:20.367Z,100530.00
2018-06-11T06:46:24.473Z,100519.00
2018-06-11T06:51:28.563Z,100531.00
2018-06-11T06:56:32.464Z,100535.00
2018-06-11T07:01:36.550Z,100536.00
2018-06-11T07:06:40.365Z,100543.00
2018-06-11T07:11:44.209Z,100548.00
2018-06-11T07:16:48.301Z,100542.00
2018-06-11T07:21:52.162Z,100540.00
2018-06-11T07:26:55.993Z,100533.00
2018-06-11T07:31:59.824Z,100530.00
2018-06-11T07:37:03.650Z,100520.00
2018-06-11T07:42:07.726Z,100531.00
2018-06-11T07:47:11.813Z,100541.00
2018-06-11T07:52:15.640Z,100539.00
2018-06-11T07:57:19.474Z,100536.00
2018-06-11T08:02:23.305Z,100544.00
2018-06-11T08:07:27.413Z,100535.00
2018-06-11T08:12:31.214Z,100525.00
2018-06-11T08:17:35.044Z,100511.00
2018-06-11T08:22:39.103Z,100507.00
2018-06-11T08:27:42.922Z,100500.00
2018-06-11T08:32:46.821Z,100486.00
2018-06-11T08:37:50.645Z,100479.00
2018-06-11T08:42:54.477Z,100487.00
2018-06-11T08:47:58.591Z,100495.00
2018-06-11T08:53:02.421Z,100502.00
2018-06-11T08:58:06.498Z,100487.00
2018-06-11T09:03:10.337Z,100490.00
2018-06-11T09:08:14.424Z,100502.00
2018-06-11T09:13:18.514Z,100505.00
2018-06-11T09:18:22.613Z,100501.00
2018-06-11T09:23:26.433Z,100505.00
2018-06-11T09:28:30.273Z,100509.00
2018-06-11T09:33:34.115Z,100513.00
2018-06-11T09:38:37.944Z,100518.00
2018-06-11T09:43:41.857Z,100517.00
2018-06-11T09:48:45.661Z,100513.00
2018-06-11T09:53:49.497Z,100509.00
2018-06-11T09:58:53.334Z,100494.00
2018-06-11T10:03:57.165Z,100494.00
2018-06-11T10:09:01.031Z,100500.00
2018-06-11T10:14:05.346Z,100512.00
2018-06-11T10:19:09.196Z,100507.00
2018-06-11T10:24:13.028Z,100499.00
2018-06-11T10:29:17.122Z,100482.00
2018-06-11T10:34:21.194Z,100475.00
2018-06-11T10:39:25.269Z,100482.00
2018-06-11T10:44:29.101Z,100473.00
2018-06-11T10:49:32.936Z,100466.00
2018-06-11T10:54:36.797Z,100452.00
2018-06-11T10:59:40.883Z,100448.00
2018-06-11T11:04:44.965Z,100454.00
2018-06-11T11:09:49.040Z,100450.00
2018-06-11T11:14:52.866Z,100436.00
2018-06-11T11:19:57.223Z,100431.00
2018-06-11T11:25:01.061Z,100431.00
2018-06-11T11:30:05.326Z,100422.00
2018-06-11T11:35:09.161Z,100424.00
2018-06-11T11:40:13.936Z,100424.00
2018-06-11T11:45:18.055Z,100415.00
2018-06-11T11:50:22.137Z,100419.00
2018-06-11T11:55:26.015Z,100412.00
2018-06-11T12:00:30.087Z,100401.00
2018-06-11T12:05:33.921Z,100394.00
2018-06-11T12:10:37.764Z,100388.00
2018-06-11T12:15:41.849Z,100381.00
2018-06-11T12:20:46.043Z,100380.00
2018-06-11T12:25:49.892Z,100373.00
2018-06-11T12:30:53.735Z,100353.00
2018-06-11T12:35:57.805Z,100346.00
2018-06-11T12:41:01.626Z,100339.00
2018-06-11T12:46:06.110Z,100336.00
2018-06-11T12:51:09.925Z,100330.00
2018-06-11T12:56:13.801Z,100326.00
2018-06-11T13:01:17.610Z,100321.00
2018-06-11T13:06:21.461Z,100317.00
2018-06-11T13:11:25.277Z,100317.00
2018-06-11T13:16:29.112Z,100318.00
2018-06-11T13:21:32.959Z,100318.00
2018-06-11T13:26:37.044Z,100312.00
2018-06-11T13:31:40.882Z,100308.00
2018-06-11T13:36:44.717Z,100301.00
2018-06-11T13:41:49.446Z,100297.00
2018-06-11T13:46:53.293Z,100291.00
2018-06-11T13:51:57.133Z,100295.00
2018-06-11T13:57:01.020Z,100301.00
2018-06-11T14:02:05.127Z,100295.00
2018-06-11T14:07:09.456Z,100299.00
2018-06-11T14:12:13.558Z,100302.00
2018-06-11T14:17:17.657Z,100297.00
2018-06-11T14:22:21.520Z,100283.00
2018-06-11T14:27:25.641Z,100281.00
2018-06-11T14:32:29.884Z,100282.00
2018-06-11T14:37:33.717Z,100288.00
2018-06-11T14:42:37.906Z,100286.00
2018-06-11T14:47:41.717Z,100290.00
2018-06-11T14:52:45.524Z,100289.00
2018-06-11T14:57:49.796Z,100293.00
2018-06-11T15:02:53.602Z,100292.00
2018-06-11T15:07:57.669Z,100296.00
2018-06-11T15:13:01.510Z,100293.00
2018-06-11T15:18:09.128Z,100291.00
2018-06-11T15:23:12.961Z,100288.00
2018-06-11T15:28:16.816Z,100293.00
2018-06-11T15:33:20.874Z,100296.00
2018-06-11T15:38:24.729Z,100298.00
2018-06-11T15:43:28.578Z,100293.00
2018-06-11T15:48:32.460Z,100294.00
2018-06-11T15:53:36.297Z,100289.00
2018-06-11T15:58:40.138Z,100289.00
2018-06-11T16:03:44.221Z,100282.00
2018-06-11T16:08:48.049Z,100273.00
2018-06-11T16:13:51.901Z,100277.00
2018-06-11T16:18:55.754Z,100271.00
2018-06-11T16:23:59.585Z,100268.00
2018-06-11T16:29:03.434Z,100277.00
2018-06-11T16:34:07.518Z,100273.00
2018-06-11T16:39:11.371Z,100280.00
2018-06-11T16:44:15.209Z,100283.00
2018-06-11T16:49:19.040Z,100285.00
2018-06-11T16:54:22.887Z,100293.00
2018-06-11T16:59:26.946Z,100297.00
2018-06-11T17:04:30.754Z,100296.00
2018-06-11T17:09:34.581Z,100298.00
2018-06-11T17:14:38.417Z,100303.00
2018-06-11T17:19:42.233Z,100310.00
2018-06-11T17:24:46.445Z,100308.00
2018-06-11T17:29:50.261Z,100309.00
2018-06-11T17:34:54.069Z,100309.00
2018-06-11T17:39:57.893Z,100311.00
2018-06-11T17:45:01.746Z,100318.00
2018-06-11T17:50:05.560Z,100322.00
2018-06-11T17:55:09.490Z,100325.00
2018-06-11T18:00:14.182Z,100323.00
2018-06-11T18:05:18.277Z,100328.00
2018-06-11T18:10:22.398Z,100335.00
2018-06-11T18:15:26.485Z,100336.00
2018-06-11T18:20:30.306Z,100335.00
2018-06-11T18:25:34.117Z,100342.00
2018-06-11T18:30:37.938Z,100343.00
2018-06-11T18:35:41.777Z,100353.00
2018-06-11T18:40:45.636Z,100351.00
2018-06-11T18:45:49.441Z,100350.00
2018-06-11T18:50:53.539Z,100354.00
2018-06-11T18:55:57.423Z,100364.00
2018-06-11T19:01:01.569Z,100369.00
2018-06-11T19:06:05.455Z,100373.00
2018-06-11T19:11:09.540Z,100386.00
2018-06-11T19:16:14.196Z,100386.00
2018-06-11T19:21:18.306Z,100391.00
2018-06-11T19:26:22.160Z,100396.00
2018-06-11T19:31:26.235Z,100395.00
2018-06-11T19:36:30.354Z,100397.00
2018-06-11T19:41:34.173Z,100390.00
2018-06-11T19:46:38.009Z,100396.00
2018-06-11T19:51:42.087Z,100397.00
2018-06-11T19:56:45.917Z,100404.00
2018-06-11T20:01:49.745Z,100410.00
2018-06-11T20:06:53.680Z,100407.00
2018-06-11T20:11:57.524Z,100410.00
2018-06-11T20:17:01.611Z,100409.00
2018-06-11T20:22:05.428Z,100410.00
2018-06-11T20:27:09.589Z,100411.00
2018-06-11T20:32:13.705Z,100400.00
2018-06-11T20:37:17.550Z,100399.00
2018-06-11T20:42:21.348Z,100396.00
2018-06-11T20:47:25.200Z,100396.00
2018-06-11T20:52:29.327Z,100394.00
2018-06-11T20:57:33.362Z,100396.00
2018-06-11T21:02:37.255Z,100392.00
2018-06-11T21:07:41.053Z,100384.00
2018-06-11T21:12:45.158Z,100389.00
2018-06-11T21:17:48.995Z,100387.00
2018-06-11T21:22:53.229Z,100388.00
2018-06-11T21:27:57.102Z,100393.00
2018-06-11T21:33:00.917Z,100395.00
2018-06-11T21:38:04.926Z,100397.00
2018-06-11T21:43:08.760Z,100393.00
2018-06-11T21:48:12.641Z,100392.00
2018-06-11T21:53:16.761Z,100399.00
2018-06-11T21:58:20.589Z,100393.00
2018-06-11T22:03:24.747Z,100392.00
2018-06-11T22:08:28.778Z,100388.00
2018-06-11T22:13:32.605Z,100387.00
2018-06-11T22:18:36.448Z,100394.00
2018-06-11T22:23:40.526Z,100392.00
2018-06-11T22:28:44.625Z,100390.00
2018-06-11T22:33:48.461Z,100394.00
2018-06-11T22:38:52.563Z,100398.00
2018-06-11T22:43:56.398Z,100403.00
2018-06-11T22:49:00.388Z,100401.00
2018-06-11T22:54:04.211Z,100400.00
2018-06-11T22:59:08.297Z,100397.00
2018-06-11T23:04:12.129Z,100390.00
2018-06-11T23:09:16.056Z,100385.00
2018-06-11T23:14:20.140Z,100379.00
2018-06-11T23:19:23.963Z,100375.00
2018-06-11T23:24:28.050Z,100371.00
2018-06-11T23:29:31.873Z,100370.00
2018-06-11T23:34:35.709Z,100369.00
2018-06-11T23:39:39.535Z,100371.00
2018-06-11T23:44:43.617Z,100367.00
2018-06-11T23:49:47.742Z,100372.00
2018-06-11T23:54:51.564Z,100374.00
2018-06-11T23:59:55.659Z,100373.00
